sensor_id;sensor_type;location;lat;lon;timestamp;P1;durP1;ratioP1;P2;durP2;ratioP2
1753;SDS011;58380;48.312;9.246;2023-07-20T05:42:54;3.60;;;1.92;;
1753;SDS011;58380;48.312;9.246;2023-07-20T05:45:21;3.67;;;1.60;;
1753;SDS011;58380;48.312;9.246;2023-07-20T05:47:47;4.85;;;1.40;;
1753;SDS011;58380;48.312;9.246;2023-07-20T05:50:13;3.42;;;1.75;;
1753;SDS011;58380;48.312;9.246;2023-07-20T05:52:39;5.03;;;1.83;;
1753;SDS011;58380;48.312;9.246;2023-07-20T05:57:32;5.95;;;1.65;;
1753;SDS011;58380;48.312;9.246;2023-07-20T05:59:58;6.68;;;1.95;;
1753;SDS011;58380;48.312;9.246;2023-07-20T06:02:24;4.03;;;1.45;;
1753;SDS011;58380;48.312;9.246;2023-07-20T06:04:49;4.35;;;2.00;;
1753;SDS011;58380;48.312;9.246;2023-07-20T06:07:15;6.53;;;1.85;;
1753;SDS011;58380;48.312;9.246;2023-07-20T06:09:40;5.15;;;1.83;;
1753;SDS011;58380;48.312;9.246;2023-07-20T06:12:06;5.45;;;1.95;;
1753;SDS011;58380;48.312;9.246;2023-07-20T06:14:32;3.97;;;1.42;;
1753;SDS011;58380;48.312;9.246;2023-07-20T06:16:58;5.70;;;1.77;;
1753;SDS011;58380;48.312;9.246;2023-07-20T06:19:24;9.05;;;1.77;;
1753;SDS011;58380;48.312;9.246;2023-07-20T06:21:49;8.55;;;1.70;;
1753;SDS011;58380;48.312;9.246;2023-07-20T06:24:15;4.33;;;1.80;;
1753;SDS011;58380;48.312;9.246;2023-07-20T06:26:41;4.55;;;1.88;;
1753;SDS011;58380;48.312;9.246;2023-07-20T06:29:07;5.15;;;1.85;;
1753;SDS011;58380;48.312;9.246;2023-07-20T06:31:39;6.38;;;1.75;;
1753;SDS011;58380;48.312;9.246;2023-07-20T06:34:04;4.05;;;1.60;;
1753;SDS011;58380;48.312;9.246;2023-07-20T06:36:30;5.78;;;1.77;;
1753;SDS011;58380;48.312;9.246;2023-07-20T06:38:55;3.03;;;1.55;;
1753;SDS011;58380;48.312;9.246;2023-07-20T06:41:21;5.47;;;1.45;;
1753;SDS011;58380;48.312;9.246;2023-07-20T06:43:47;3.35;;;1.88;;
1753;SDS011;58380;48.312;9.246;2023-07-20T06:48:39;3.83;;;1.70;;
1753;SDS011;58380;48.312;9.246;2023-07-20T06:51:04;2.85;;;1.65;;
1753;SDS011;58380;48.312;9.246;2023-07-20T06:53:30;7.43;;;1.83;;
1753;SDS011;58380;48.312;9.246;2023-07-20T06:55:55;3.78;;;1.73;;
1753;SDS011;58380;48.312;9.246;2023-07-20T06:58:24;3.85;;;1.65;;
1753;SDS011;58380;48.312;9.246;2023-07-20T07:00:50;2.40;;;1.48;;
1753;SDS011;58380;48.312;9.246;2023-07-20T07:03:16;4.05;;;1.60;;
1753;SDS011;58380;48.312;9.246;2023-07-20T07:05:43;3.38;;;1.63;;
1753;SDS011;58380;48.312;9.246;2023-07-20T07:08:09;5.55;;;1.80;;
1753;SDS011;58380;48.312;9.246;2023-07-20T07:10:38;2.28;;;1.67;;
1753;SDS011;58380;48.312;9.246;2023-07-20T07:13:03;5.00;;;1.85;;
1753;SDS011;58380;48.312;9.246;2023-07-20T07:15:29;4.75;;;1.65;;
1753;SDS011;58380;48.312;9.246;2023-07-20T07:17:54;6.05;;;2.28;;
1753;SDS011;58380;48.312;9.246;2023-07-20T07:20:20;4.18;;;1.83;;
1753;SDS011;58380;48.312;9.246;2023-07-20T07:22:46;4.32;;;2.00;;
1753;SDS011;58380;48.312;9.246;2023-07-20T07:27:38;3.70;;;1.90;;
1753;SDS011;58380;48.312;9.246;2023-07-20T07:30:03;3.90;;;2.15;;
1753;SDS011;58380;48.312;9.246;2023-07-20T07:32:30;4.68;;;2.03;;
1753;SDS011;58380;48.312;9.246;2023-07-20T07:37:23;4.93;;;2.00;;
1753;SDS011;58380;48.312;9.246;2023-07-20T07:39:49;5.15;;;1.95;;
1753;SDS011;58380;48.312;9.246;2023-07-20T07:42:14;7.45;;;2.15;;
1753;SDS011;58380;48.312;9.246;2023-07-20T07:44:40;4.25;;;1.55;;
1753;SDS011;58380;48.312;9.246;2023-07-20T07:47:05;8.43;;;2.00;;
1753;SDS011;58380;48.312;9.246;2023-07-20T07:49:31;6.63;;;1.80;;
1753;SDS011;58380;48.312;9.246;2023-07-20T07:51:56;5.78;;;1.63;;
1753;SDS011;58380;48.312;9.246;2023-07-20T07:54:22;4.43;;;1.45;;
1753;SDS011;58380;48.312;9.246;2023-07-20T07:56:47;2.85;;;1.27;;
1753;SDS011;58380;48.312;9.246;2023-07-20T07:59:13;3.03;;;1.52;;
1753;SDS011;58380;48.312;9.246;2023-07-20T08:01:38;4.28;;;1.40;;
1753;SDS011;58380;48.312;9.246;2023-07-20T08:04:04;6.57;;;1.77;;
1753;SDS011;58380;48.312;9.246;2023-07-20T08:06:29;4.72;;;1.60;;
1753;SDS011;58380;48.312;9.246;2023-07-20T08:08:56;4.10;;;1.33;;
1753;SDS011;58380;48.312;9.246;2023-07-20T08:11:21;3.70;;;1.58;;
1753;SDS011;58380;48.312;9.246;2023-07-20T08:13:48;3.70;;;1.50;;
1753;SDS011;58380;48.312;9.246;2023-07-20T08:16:13;3.90;;;1.85;;
1753;SDS011;58380;48.312;9.246;2023-07-20T08:18:39;3.78;;;1.50;;
1753;SDS011;58380;48.312;9.246;2023-07-20T08:21:04;3.05;;;1.60;;
1753;SDS011;58380;48.312;9.246;2023-07-20T08:23:29;6.15;;;2.05;;
1753;SDS011;58380;48.312;9.246;2023-07-20T08:25:55;6.25;;;1.52;;
1753;SDS011;58380;48.312;9.246;2023-07-20T08:28:20;2.80;;;1.50;;
1753;SDS011;58380;48.312;9.246;2023-07-20T08:30:46;3.72;;;1.40;;
1753;SDS011;58380;48.312;9.246;2023-07-20T08:33:15;3.13;;;1.30;;
1753;SDS011;58380;48.312;9.246;2023-07-20T08:35:46;2.75;;;1.35;;
1753;SDS011;58380;48.312;9.246;2023-07-20T08:38:12;3.38;;;1.20;;
1753;SDS011;58380;48.312;9.246;2023-07-20T08:43:05;2.35;;;1.30;;
1753;SDS011;58380;48.312;9.246;2023-07-20T08:45:32;3.25;;;1.30;;
1753;SDS011;58380;48.312;9.246;2023-07-20T08:48:00;2.50;;;1.40;;
1753;SDS011;58380;48.312;9.246;2023-07-20T08:50:30;6.88;;;1.65;;
1753;SDS011;58380;48.312;9.246;2023-07-20T08:52:57;7.47;;;1.65;;
1753;SDS011;58380;48.312;9.246;2023-07-20T08:55:24;4.97;;;1.55;;
1753;SDS011;58380;48.312;9.246;2023-07-20T08:57:55;3.85;;;1.67;;
1753;SDS011;58380;48.312;9.246;2023-07-20T09:00:23;3.92;;;1.67;;
1753;SDS011;58380;48.312;9.246;2023-07-20T09:02:51;5.35;;;1.50;;
1753;SDS011;58380;48.312;9.246;2023-07-20T09:05:19;4.00;;;1.50;;
1753;SDS011;58380;48.312;9.246;2023-07-20T09:07:45;4.88;;;1.58;;
1753;SDS011;58380;48.312;9.246;2023-07-20T09:10:12;3.92;;;1.83;;
1753;SDS011;58380;48.312;9.246;2023-07-20T09:15:06;4.68;;;1.77;;
1753;SDS011;58380;48.312;9.246;2023-07-20T09:17:32;5.93;;;1.58;;
1753;SDS011;58380;48.312;9.246;2023-07-20T09:19:58;4.88;;;1.58;;
1753;SDS011;58380;48.312;9.246;2023-07-20T09:22:30;4.03;;;1.63;;
1753;SDS011;58380;48.312;9.246;2023-07-20T09:27:29;10.52;;;1.50;;
1753;SDS011;58380;48.312;9.246;2023-07-20T09:30:03;2.58;;;1.60;;
1753;SDS011;58380;48.312;9.246;2023-07-20T09:32:32;3.53;;;1.50;;
1753;SDS011;58380;48.312;9.246;2023-07-20T09:35:06;5.55;;;1.77;;
1753;SDS011;58380;48.312;9.246;2023-07-20T09:37:32;7.38;;;1.90;;
1753;SDS011;58380;48.312;9.246;2023-07-20T09:39:58;6.00;;;1.67;;
1753;SDS011;58380;48.312;9.246;2023-07-20T09:42:24;5.45;;;1.38;;
1753;SDS011;58380;48.312;9.246;2023-07-20T09:44:51;3.75;;;1.90;;
1753;SDS011;58380;48.312;9.246;2023-07-20T09:47:23;6.25;;;1.60;;
1753;SDS011;58380;48.312;9.246;2023-07-20T09:49:57;8.27;;;1.75;;
1753;SDS011;58380;48.312;9.246;2023-07-20T09:52:28;3.83;;;1.73;;
1753;SDS011;58380;48.312;9.246;2023-07-20T09:54:55;3.95;;;1.52;;
1753;SDS011;58380;48.312;9.246;2023-07-20T09:57:22;3.05;;;1.50;;
1753;SDS011;58380;48.312;9.246;2023-07-20T10:02:25;4.22;;;1.33;;
1753;SDS011;58380;48.312;9.246;2023-07-20T10:04:58;5.10;;;1.65;;
1753;SDS011;58380;48.312;9.246;2023-07-20T10:07:29;3.83;;;1.75;;
1753;SDS011;58380;48.312;9.246;2023-07-20T10:09:56;4.50;;;1.52;;
1753;SDS011;58380;48.312;9.246;2023-07-20T10:12:26;3.28;;;1.50;;
1753;SDS011;58380;48.312;9.246;2023-07-20T10:15:05;3.28;;;1.60;;
1753;SDS011;58380;48.312;9.246;2023-07-20T10:18:07;2.60;;;1.45;;
1753;SDS011;58380;48.312;9.246;2023-07-20T10:20:39;3.35;;;1.48;;
1753;SDS011;58380;48.312;9.246;2023-07-20T10:23:06;2.55;;;1.40;;
1753;SDS011;58380;48.312;9.246;2023-07-20T10:25:32;2.75;;;1.38;;
1753;SDS011;58380;48.312;9.246;2023-07-20T10:28:03;3.72;;;1.63;;
1753;SDS011;58380;48.312;9.246;2023-07-20T10:30:32;6.05;;;1.70;;
1753;SDS011;58380;48.312;9.246;2023-07-20T10:33:03;2.20;;;1.17;;
1753;SDS011;58380;48.312;9.246;2023-07-20T10:35:31;2.45;;;1.10;;
1753;SDS011;58380;48.312;9.246;2023-07-20T10:38:16;3.17;;;1.25;;
1753;SDS011;58380;48.312;9.246;2023-07-20T10:40:41;2.15;;;1.20;;
1753;SDS011;58380;48.312;9.246;2023-07-20T10:43:07;4.35;;;1.50;;
1753;SDS011;58380;48.312;9.246;2023-07-20T10:45:53;3.00;;;1.42;;
1753;SDS011;58380;48.312;9.246;2023-07-20T10:48:22;2.67;;;1.27;;
1753;SDS011;58380;48.312;9.246;2023-07-20T10:53:41;2.72;;;1.20;;
1753;SDS011;58380;48.312;9.246;2023-07-20T10:58:37;5.90;;;1.77;;
1753;SDS011;58380;48.312;9.246;2023-07-20T11:01:03;4.32;;;1.30;;
1753;SDS011;58380;48.312;9.246;2023-07-20T11:03:31;7.20;;;2.13;;
1753;SDS011;58380;48.312;9.246;2023-07-20T11:05:59;4.88;;;1.58;;
1753;SDS011;58380;48.312;9.246;2023-07-20T11:11:44;2.78;;;1.30;;
1753;SDS011;58380;48.312;9.246;2023-07-20T11:14:22;2.08;;;1.20;;
1753;SDS011;58380;48.312;9.246;2023-07-20T11:16:50;4.55;;;1.48;;
1753;SDS011;58380;48.312;9.246;2023-07-20T11:21:55;3.90;;;1.30;;
1753;SDS011;58380;48.312;9.246;2023-07-20T11:24:22;2.40;;;1.33;;
1753;SDS011;58380;48.312;9.246;2023-07-20T11:29:19;3.28;;;1.23;;
1753;SDS011;58380;48.312;9.246;2023-07-20T11:31:47;2.50;;;1.45;;
1753;SDS011;58380;48.312;9.246;2023-07-20T11:36:43;5.15;;;1.30;;
1753;SDS011;58380;48.312;9.246;2023-07-20T11:39:11;8.13;;;1.27;;
1753;SDS011;58380;48.312;9.246;2023-07-20T11:41:41;2.08;;;1.25;;
1753;SDS011;58380;48.312;9.246;2023-07-20T11:44:15;2.28;;;1.40;;
1753;SDS011;58380;48.312;9.246;2023-07-20T11:46:42;3.15;;;1.35;;
1753;SDS011;58380;48.312;9.246;2023-07-20T11:49:09;3.20;;;1.30;;
1753;SDS011;58380;48.312;9.246;2023-07-20T11:51:36;2.58;;;1.10;;
1753;SDS011;58380;48.312;9.246;2023-07-20T11:54:05;3.95;;;1.25;;
1753;SDS011;58380;48.312;9.246;2023-07-20T11:56:33;2.10;;;0.95;;
1753;SDS011;58380;48.312;9.246;2023-07-20T12:01:26;4.03;;;1.10;;
1753;SDS011;58380;48.312;9.246;2023-07-20T12:04:00;2.65;;;1.38;;
1753;SDS011;58380;48.312;9.246;2023-07-20T12:06:28;3.10;;;1.55;;
1753;SDS011;58380;48.312;9.246;2023-07-20T12:08:55;3.65;;;1.23;;
1753;SDS011;58380;48.312;9.246;2023-07-20T12:11:35;2.35;;;1.13;;
1753;SDS011;58380;48.312;9.246;2023-07-20T12:14:07;3.72;;;1.40;;
1753;SDS011;58380;48.312;9.246;2023-07-20T12:16:34;4.75;;;1.45;;
1753;SDS011;58380;48.312;9.246;2023-07-20T12:19:04;2.15;;;1.30;;
1753;SDS011;58380;48.312;9.246;2023-07-20T12:21:33;1.33;;;1.00;;
1753;SDS011;58380;48.312;9.246;2023-07-20T12:24:01;2.83;;;1.10;;
1753;SDS011;58380;48.312;9.246;2023-07-20T12:26:32;1.85;;;1.20;;
1753;SDS011;58380;48.312;9.246;2023-07-20T12:28:58;2.90;;;1.20;;
1753;SDS011;58380;48.312;9.246;2023-07-20T12:31:25;2.05;;;1.10;;
1753;SDS011;58380;48.312;9.246;2023-07-20T12:33:52;4.95;;;1.23;;
1753;SDS011;58380;48.312;9.246;2023-07-20T12:36:20;2.17;;;1.17;;
1753;SDS011;58380;48.312;9.246;2023-07-20T12:41:12;3.67;;;1.42;;
1753;SDS011;58380;48.312;9.246;2023-07-20T12:43:38;2.60;;;1.38;;
1753;SDS011;58380;48.312;9.246;2023-07-20T12:46:05;2.58;;;1.00;;
1753;SDS011;58380;48.312;9.246;2023-07-20T12:50:56;2.50;;;1.20;;
1753;SDS011;58380;48.312;9.246;2023-07-20T12:55:47;3.38;;;1.48;;
1753;SDS011;58380;48.312;9.246;2023-07-20T13:00:39;5.82;;;1.50;;
1753;SDS011;58380;48.312;9.246;2023-07-20T13:03:05;2.15;;;1.08;;
1753;SDS011;58380;48.312;9.246;2023-07-20T13:05:32;2.60;;;1.33;;
1753;SDS011;58380;48.312;9.246;2023-07-20T13:10:23;3.55;;;1.40;;
1753;SDS011;58380;48.312;9.246;2023-07-20T13:12:49;4.43;;;1.20;;
1753;SDS011;58380;48.312;9.246;2023-07-20T13:17:41;5.32;;;1.20;;
1753;SDS011;58380;48.312;9.246;2023-07-20T13:22:35;2.28;;;1.20;;
1753;SDS011;58380;48.312;9.246;2023-07-20T13:25:01;3.45;;;1.02;;
1753;SDS011;58380;48.312;9.246;2023-07-20T13:29:53;4.28;;;1.42;;
1753;SDS011;58380;48.312;9.246;2023-07-20T13:34:44;2.90;;;1.30;;
1753;SDS011;58380;48.312;9.246;2023-07-20T13:37:10;4.35;;;1.23;;
1753;SDS011;58380;48.312;9.246;2023-07-20T13:39:36;3.53;;;1.27;;
1753;SDS011;58380;48.312;9.246;2023-07-20T13:42:03;2.28;;;1.30;;
1753;SDS011;58380;48.312;9.246;2023-07-20T13:44:33;3.08;;;1.40;;
1753;SDS011;58380;48.312;9.246;2023-07-20T13:46:59;3.15;;;1.38;;
1753;SDS011;58380;48.312;9.246;2023-07-20T13:49:26;3.08;;;1.42;;
1753;SDS011;58380;48.312;9.246;2023-07-20T13:54:17;2.47;;;1.30;;
1753;SDS011;58380;48.312;9.246;2023-07-20T13:59:08;1.73;;;1.20;;
1753;SDS011;58380;48.312;9.246;2023-07-20T14:01:34;4.53;;;1.42;;
1753;SDS011;58380;48.312;9.246;2023-07-20T14:04:00;4.25;;;1.40;;
1753;SDS011;58380;48.312;9.246;2023-07-20T14:06:29;3.47;;;1.30;;
1753;SDS011;58380;48.312;9.246;2023-07-20T14:08:57;3.38;;;1.30;;
1753;SDS011;58380;48.312;9.246;2023-07-20T14:11:24;3.65;;;1.30;;
1753;SDS011;58380;48.312;9.246;2023-07-20T14:13:49;5.10;;;1.25;;
1753;SDS011;58380;48.312;9.246;2023-07-20T14:16:17;2.15;;;1.20;;
1753;SDS011;58380;48.312;9.246;2023-07-20T14:21:12;10.35;;;1.40;;
1753;SDS011;58380;48.312;9.246;2023-07-20T14:26:03;3.00;;;1.20;;
1753;SDS011;58380;48.312;9.246;2023-07-20T14:28:30;4.43;;;1.35;;
1753;SDS011;58380;48.312;9.246;2023-07-20T14:30:57;2.45;;;1.10;;
1753;SDS011;58380;48.312;9.246;2023-07-20T14:33:22;2.53;;;1.27;;
1753;SDS011;58380;48.312;9.246;2023-07-20T14:35:48;2.92;;;1.35;;
1753;SDS011;58380;48.312;9.246;2023-07-20T14:38:13;3.83;;;1.35;;
1753;SDS011;58380;48.312;9.246;2023-07-20T14:40:39;8.80;;;1.23;;
1753;SDS011;58380;48.312;9.246;2023-07-20T14:43:04;2.90;;;1.33;;
1753;SDS011;58380;48.312;9.246;2023-07-20T14:45:29;5.57;;;1.13;;
1753;SDS011;58380;48.312;9.246;2023-07-20T14:47:55;5.40;;;1.52;;
1753;SDS011;58380;48.312;9.246;2023-07-20T14:50:20;2.45;;;1.23;;
1753;SDS011;58380;48.312;9.246;2023-07-20T14:52:46;3.85;;;1.38;;
1753;SDS011;58380;48.312;9.246;2023-07-20T14:55:12;4.22;;;1.23;;
1753;SDS011;58380;48.312;9.246;2023-07-20T14:57:38;5.35;;;1.27;;
1753;SDS011;58380;48.312;9.246;2023-07-20T15:00:04;6.28;;;1.20;;
1753;SDS011;58380;48.312;9.246;2023-07-20T15:02:33;3.95;;;1.60;;
1753;SDS011;58380;48.312;9.246;2023-07-20T15:04:59;1.73;;;1.20;;
1753;SDS011;58380;48.312;9.246;2023-07-20T15:07:25;4.25;;;1.30;;
1753;SDS011;58380;48.312;9.246;2023-07-20T15:12:16;5.10;;;1.55;;
1753;SDS011;58380;48.312;9.246;2023-07-20T15:14:42;4.20;;;1.50;;
1753;SDS011;58380;48.312;9.246;2023-07-20T15:17:09;3.10;;;1.13;;
1753;SDS011;58380;48.312;9.246;2023-07-20T15:19:36;4.03;;;1.10;;
1753;SDS011;58380;48.312;9.246;2023-07-20T15:24:29;3.42;;;1.55;;
1753;SDS011;58380;48.312;9.246;2023-07-20T15:26:55;4.00;;;1.02;;
1753;SDS011;58380;48.312;9.246;2023-07-20T15:31:46;4.68;;;1.20;;
1753;SDS011;58380;48.312;9.246;2023-07-20T15:34:13;3.05;;;1.30;;
1753;SDS011;58380;48.312;9.246;2023-07-20T15:36:40;3.67;;;1.15;;
1753;SDS011;58380;48.312;9.246;2023-07-20T15:41:31;2.65;;;1.20;;
1753;SDS011;58380;48.312;9.246;2023-07-20T15:43:57;4.57;;;1.27;;
1753;SDS011;58380;48.312;9.246;2023-07-20T15:48:48;3.92;;;1.00;;
1753;SDS011;58380;48.312;9.246;2023-07-20T15:51:13;2.90;;;1.13;;
1753;SDS011;58380;48.312;9.246;2023-07-20T15:53:39;3.20;;;1.00;;
1753;SDS011;58380;48.312;9.246;2023-07-20T15:56:05;2.63;;;1.10;;
1753;SDS011;58380;48.312;9.246;2023-07-20T15:58:31;3.47;;;1.30;;
1753;SDS011;58380;48.312;9.246;2023-07-20T16:00:57;3.15;;;1.42;;
1753;SDS011;58380;48.312;9.246;2023-07-20T16:03:24;2.17;;;1.27;;
1753;SDS011;58380;48.312;9.246;2023-07-20T16:05:50;6.00;;;1.20;;
1753;SDS011;58380;48.312;9.246;2023-07-20T16:08:18;3.17;;;1.30;;
1753;SDS011;58380;48.312;9.246;2023-07-20T16:10:43;3.65;;;1.20;;
1753;SDS011;58380;48.312;9.246;2023-07-20T16:13:09;1.98;;;1.10;;
1753;SDS011;58380;48.312;9.246;2023-07-20T16:15:34;3.80;;;1.35;;
1753;SDS011;58380;48.312;9.246;2023-07-20T16:18:00;2.85;;;1.40;;
1753;SDS011;58380;48.312;9.246;2023-07-20T16:20:25;4.03;;;1.55;;
1753;SDS011;58380;48.312;9.246;2023-07-20T16:22:51;3.40;;;1.27;;
1753;SDS011;58380;48.312;9.246;2023-07-20T16:25:17;2.00;;;1.33;;
1753;SDS011;58380;48.312;9.246;2023-07-20T16:27:43;3.88;;;1.20;;
1753;SDS011;58380;48.312;9.246;2023-07-20T16:30:09;2.38;;;1.35;;
1753;SDS011;58380;48.312;9.246;2023-07-20T16:32:34;3.58;;;1.48;;
1753;SDS011;58380;48.312;9.246;2023-07-20T16:35:00;4.18;;;1.02;;
1753;SDS011;58380;48.312;9.246;2023-07-20T16:37:26;2.25;;;1.30;;
1753;SDS011;58380;48.312;9.246;2023-07-20T16:39:51;2.30;;;1.40;;
1753;SDS011;58380;48.312;9.246;2023-07-20T16:42:20;3.13;;;1.30;;
1753;SDS011;58380;48.312;9.246;2023-07-20T16:44:52;2.67;;;1.17;;
1753;SDS011;58380;48.312;9.246;2023-07-20T16:47:18;4.20;;;1.10;;
1753;SDS011;58380;48.312;9.246;2023-07-20T16:49:46;3.17;;;0.93;;
1753;SDS011;58380;48.312;9.246;2023-07-20T16:52:11;2.78;;;1.40;;
1753;SDS011;58380;48.312;9.246;2023-07-20T16:54:36;3.15;;;1.20;;
1753;SDS011;58380;48.312;9.246;2023-07-20T16:57:02;4.00;;;1.50;;
1753;SDS011;58380;48.312;9.246;2023-07-20T16:59:28;5.03;;;1.42;;
1753;SDS011;58380;48.312;9.246;2023-07-20T17:04:18;3.00;;;1.10;;
1753;SDS011;58380;48.312;9.246;2023-07-20T17:09:13;4.10;;;1.10;;
1753;SDS011;58380;48.312;9.246;2023-07-20T17:11:39;3.65;;;1.40;;
1753;SDS011;58380;48.312;9.246;2023-07-20T17:16:30;6.90;;;1.33;;
1753;SDS011;58380;48.312;9.246;2023-07-20T17:18:56;5.97;;;1.20;;
1753;SDS011;58380;48.312;9.246;2023-07-20T17:21:22;3.60;;;1.30;;
1753;SDS011;58380;48.312;9.246;2023-07-20T17:26:16;5.82;;;1.23;;
1753;SDS011;58380;48.312;9.246;2023-07-20T17:31:07;5.70;;;1.30;;
1753;SDS011;58380;48.312;9.246;2023-07-20T17:35:58;5.55;;;1.20;;
1753;SDS011;58380;48.312;9.246;2023-07-20T19:34:24;3.17;;;1.45;;
1753;SDS011;58380;48.312;9.246;2023-07-20T19:40:09;2.25;;;1.30;;
1753;SDS011;58380;48.312;9.246;2023-07-20T19:42:35;3.88;;;1.20;;
1753;SDS011;58380;48.312;9.246;2023-07-20T19:45:01;2.65;;;1.30;;
1753;SDS011;58380;48.312;9.246;2023-07-20T20:12:47;4.00;;;1.42;;
1753;SDS011;58380;48.312;9.246;2023-07-20T20:15:13;7.68;;;1.70;;
1753;SDS011;58380;48.312;9.246;2023-07-20T20:20:07;2.63;;;1.10;;
1753;SDS011;58380;48.312;9.246;2023-07-20T20:22:33;2.88;;;1.20;;
1753;SDS011;58380;48.312;9.246;2023-07-20T20:24:58;1.77;;;1.00;;
1753;SDS011;58380;48.312;9.246;2023-07-20T20:27:24;3.65;;;1.10;;
1753;SDS011;58380;48.312;9.246;2023-07-20T20:29:49;1.88;;;0.95;;
1753;SDS011;58380;48.312;9.246;2023-07-20T20:32:15;2.42;;;1.30;;
1753;SDS011;58380;48.312;9.246;2023-07-20T20:34:41;3.72;;;1.25;;
1753;SDS011;58380;48.312;9.246;2023-07-20T20:37:06;2.08;;;1.05;;
1753;SDS011;58380;48.312;9.246;2023-07-20T20:39:32;4.05;;;1.50;;
1753;SDS011;58380;48.312;9.246;2023-07-20T20:41:57;3.90;;;1.00;;
1753;SDS011;58380;48.312;9.246;2023-07-20T20:44:23;2.75;;;1.13;;
1753;SDS011;58380;48.312;9.246;2023-07-20T20:46:51;3.13;;;1.23;;
1753;SDS011;58380;48.312;9.246;2023-07-20T20:49:26;2.33;;;0.98;;
1753;SDS011;58380;48.312;9.246;2023-07-20T20:51:53;3.05;;;1.30;;
1753;SDS011;58380;48.312;9.246;2023-07-20T20:54:19;2.35;;;1.40;;
1753;SDS011;58380;48.312;9.246;2023-07-20T20:56:45;2.65;;;1.30;;
1753;SDS011;58380;48.312;9.246;2023-07-20T20:59:10;2.30;;;1.25;;
1753;SDS011;58380;48.312;9.246;2023-07-20T21:01:36;3.47;;;1.17;;
1753;SDS011;58380;48.312;9.246;2023-07-20T21:04:02;3.95;;;1.08;;
1753;SDS011;58380;48.312;9.246;2023-07-20T21:06:27;1.80;;;1.00;;
1753;SDS011;58380;48.312;9.246;2023-07-20T21:08:53;3.58;;;1.40;;
1753;SDS011;58380;48.312;9.246;2023-07-20T21:13:45;2.70;;;1.10;;
1753;SDS011;58380;48.312;9.246;2023-07-20T21:16:10;4.40;;;1.35;;
1753;SDS011;58380;48.312;9.246;2023-07-20T21:18:36;3.97;;;1.50;;
1753;SDS011;58380;48.312;9.246;2023-07-20T21:21:02;3.33;;;1.65;;
1753;SDS011;58380;48.312;9.246;2023-07-20T21:23:29;4.20;;;1.25;;
1753;SDS011;58380;48.312;9.246;2023-07-20T21:25:54;3.33;;;0.90;;
1753;SDS011;58380;48.312;9.246;2023-07-20T21:28:20;2.00;;;0.95;;
1753;SDS011;58380;48.312;9.246;2023-07-20T21:30:45;2.97;;;1.33;;
1753;SDS011;58380;48.312;9.246;2023-07-20T21:33:11;2.20;;;1.10;;
1753;SDS011;58380;48.312;9.246;2023-07-20T21:35:39;1.45;;;0.90;;
1753;SDS011;58380;48.312;9.246;2023-07-20T21:38:05;2.13;;;1.00;;
1753;SDS011;58380;48.312;9.246;2023-07-20T21:40:30;2.00;;;1.00;;
